Latest Weather Observations for Parawa West

IDS60801

Issued at 7:01 pm CST Tuesday 30 June 2015 (issued every 30 minutes, with the page automatically refreshed every 10 minutes)

About weather observations | Map of weather stations | Latest weather observations for SA | Other Formats
Station Details ID: 023875 Name: SECOND VALLEY FOREST AWS Lat: -35.57 Lon: 138.29 Height: 341.0 m
Data from the previous 72 hours. | See also: Recent months at Parawa West
Date/Time
CST
Temp
°C
App
Temp
°C
Dew
Point
Rel
Hum
%
Delta-T
°C
Wind Press
QNH
hPa
Press
MSL
hPa
Rain
since 9 am
mm
Dir
 
Spd
km/h
Gust
km/h
Spd
kts
Gust
kts
30/07:00pm 7.7 - - - - NW 7 9 4 5 1029.7 1030.0 0.0
30/06:30pm 7.7 - - - - NW 6 7 3 4 1029.4 1029.7 0.0
30/06:00pm 8.0 - - - - NW 7 9 4 5 1029.1 1029.4 0.0
30/05:30pm 8.3 - - - - NW 6 7 3 4 1028.8 1029.1 0.0
30/05:00pm 9.4 - - - - NW 7 11 4 6 1028.6 1028.9 0.0
30/04:30pm 9.9 - - - - NW 7 11 4 6 1028.4 1028.7 0.0
30/04:00pm 10.1 - - - - WNW 7 11 4 6 1028.3 1028.6 0.0
30/03:30pm 10.4 - - - - WNW 9 13 5 7 1028.2 1028.5 0.0
30/03:00pm 10.7 - - - - WNW 11 17 6 9 1028.3 1028.6 0.0
30/02:30pm 10.4 - - - - W 9 15 5 8 1028.4 1028.7 0.0
30/02:00pm 10.4 - - - - WNW 9 13 5 7 1028.4 1028.7 0.0
30/01:30pm 10.3 - - - - NW 9 13 5 7 1028.7 1029.0 0.0
30/01:00pm 10.1 - - - - NW 7 11 4 6 1028.9 1029.2 0.0
30/12:30pm 10.0 - - - - NW 9 13 5 7 1029.2 1029.5 0.0
30/12:00pm 10.3 - - - - WNW 9 13 5 7 1029.5 1029.9 0.0
30/11:30am 11.1 - - - - NW 9 13 5 7 1029.9 1030.2 0.0
30/11:00am 10.4 - - - - NW 7 11 4 6 1030.2 1030.5 0.0
30/10:30am 10.3 9.1 10.3 100 0.0 WNW 7 13 4 7 1030.4 1030.7 0.0
30/10:00am 9.7 8.9 9.7 100 0.0 SW 4 7 2 4 1030.6 1030.9 0.0
30/09:30am 9.7 8.9 9.7 100 0.0 SW 4 6 2 3 1030.4 1030.7 0.0
30/09:00am 9.3 8.4 9.3 100 0.0 SSW 4 6 2 3 1030.2 1030.5 0.0
30/08:30am 9.2 8.3 9.2 100 0.0 SSW 4 7 2 4 1029.8 1030.1 0.0
30/08:00am 8.7 7.7 8.7 100 0.0 SSW 4 6 2 3 1029.4 1029.7 0.0
30/07:30am 8.7 8.0 8.7 100 0.0 SSW 2 6 1 3 1029.2 1029.5 0.0
30/07:00am 8.6 7.5 8.6 100 0.0 SSW 4 6 2 3 1029.0 1029.3 0.0
30/06:30am 8.0 7.2 8.0 100 0.0 SSW 2 6 1 3 1028.9 1029.2 0.0
30/06:00am 8.6 7.4 8.0 96 0.3 WNW 4 4 2 2 1028.6 1028.9 0.0
30/05:30am 8.2 7.8 8.2 100 0.0 CALM 0 0 0 0 1028.4 1028.7 0.0
30/05:00am 9.0 7.4 7.9 93 0.5 WNW 6 7 3 4 1028.2 1028.5 0.0
30/04:30am 8.2 7.0 8.2 100 0.0 WNW 4 7 2 4 1028.3 1028.6 0.0
30/04:00am 8.9 7.4 8.5 97 0.2 WNW 6 7 3 4 1028.3 1028.6 0.0
30/03:30am 8.9 8.3 8.8 99 0.0 WNW 2 6 1 3 1028.3 1028.6 0.0
30/03:00am 8.8 8.5 8.8 100 0.0 CALM 0 0 0 0 1028.4 1028.7 0.0
30/02:30am 8.9 8.7 8.9 100 0.0 CALM 0 6 0 3 1028.5 1028.8 0.0
30/02:00am 9.3 9.2 9.3 100 0.0 CALM 0 0 0 0 1028.5 1028.8 0.0
30/01:30am 8.5 8.2 8.5 100 0.0 CALM 0 0 0 0 1028.7 1029.0 0.0
30/01:00am 9.2 9.0 9.2 100 0.0 CALM 0 0 0 0 1029.0 1029.3 0.0
30/12:30am 8.6 8.3 8.6 100 0.0 CALM 0 0 0 0 1029.2 1029.5 0.0
30/12:00am 9.0 8.8 9.0 100 0.0 CALM 0 0 0 0 1029.5 1029.9 0.0
 
Date/Time
CST
Temp
°C
App
Temp
°C
Dew
Point
Rel
Hum
%
Delta-T
°C
Wind Press
QNH
hPa
Press
MSL
hPa
Rain
since 9 am
mm
Dir
 
Spd
km/h
Gust
km/h
Spd
kts
Gust
kts
29/11:30pm 9.0 8.8 9.0 100 0.0 CALM 0 2 0 1 1029.9 1030.2 0.0
29/11:00pm 8.5 8.2 8.5 100 0.0 CALM 0 0 0 0 1029.9 1030.2 0.0
29/10:30pm 9.1 8.9 9.1 100 0.0 CALM 0 0 0 0 1029.9 1030.2 0.0
29/10:00pm 8.7 8.4 8.7 100 0.0 CALM 0 0 0 0 1030.0 1030.3 0.0
29/09:30pm 8.9 8.7 8.9 100 0.0 CALM 0 4 0 2 1030.2 1030.5 0.0
29/09:00pm 8.9 8.7 8.9 100 0.0 CALM 0 0 0 0 1030.3 1030.6 0.0
29/08:30pm 8.9 8.7 8.9 100 0.0 CALM 0 0 0 0 1030.4 1030.7 0.0
29/08:00pm 8.9 8.3 8.9 100 0.0 WNW 2 4 1 2 1030.4 1030.7 0.0
29/07:30pm 8.7 7.7 8.7 100 0.0 WNW 4 4 2 2 1030.2 1030.5 0.0
29/07:00pm 8.8 8.5 8.8 100 0.0 CALM 0 2 0 1 1030.2 1030.5 0.0
29/06:30pm 8.9 8.3 8.9 100 0.0 WNW 2 4 1 2 1030.0 1030.3 0.0
29/06:00pm 8.9 7.9 8.9 100 0.0 WNW 4 6 2 3 1029.8 1030.1 0.0
29/05:30pm 8.9 7.5 8.9 100 0.0 WNW 6 6 3 3 1029.5 1029.9 0.0
29/05:00pm 9.1 8.5 9.1 100 0.0 WNW 2 6 1 3 1029.4 1029.7 0.0
29/04:30pm 9.4 8.5 9.4 100 0.0 WNW 4 6 2 3 1029.7 1030.0 0.0
29/04:00pm 9.6 8.4 9.6 100 0.0 WNW 6 7 3 4 1029.5 1029.9 0.0
29/03:30pm 9.8 8.7 9.8 100 0.0 WNW 6 9 3 5 1029.8 1030.1 0.0
29/03:00pm 9.8 8.7 9.8 100 0.0 WNW 6 9 3 5 1030.0 1030.3 0.0
29/02:30pm 9.8 8.7 9.8 100 0.0 NW 6 9 3 5 1030.2 1030.5 0.0
29/02:00pm 10.0 8.3 10.0 100 0.0 NW 9 13 5 7 1030.3 1030.6 0.0
29/01:30pm 10.8 9.9 10.8 100 0.0 WNW 6 9 3 5 1030.4 1030.7 0.0
29/01:00pm 10.7 8.9 10.7 100 0.0 NW 11 17 6 9 1030.9 1031.2 0.0
29/12:30pm 10.9 9.9 10.9 100 0.0 NW 7 13 4 7 1031.4 1031.7 0.0
29/12:00pm 10.7 9.2 10.7 100 0.0 NW 9 17 5 9 1031.9 1032.2 0.0
29/11:30am 11.0 10.0 11.0 100 0.0 NNW 7 15 4 8 1032.3 1032.7 0.0
29/11:00am 11.4 10.7 11.4 100 0.0 NE 6 9 3 5 1032.4 1032.8 0.0
29/10:30am 11.3 11.0 11.3 100 0.0 NE 4 9 2 5 1032.8 1033.1 0.0
29/10:00am 11.0 10.6 11.0 100 0.0 NE 4 6 2 3 1032.8 1033.1 0.0
29/09:30am 10.3 9.3 10.3 100 0.0 NNE 6 7 3 4 1032.8 1033.1 0.0
29/09:00am 9.6 9.5 9.6 100 0.0 CALM 0 2 0 1 1032.8 1033.1 0.0
29/08:30am 9.2 8.3 9.2 100 0.0 NNE 4 6 2 3 1032.5 1032.9 0.0
29/08:00am 8.6 8.3 8.6 100 0.0 CALM 0 0 0 0 1032.4 1032.8 0.0
29/07:30am 9.1 8.5 9.1 100 0.0 NNE 2 7 1 4 1032.2 1032.6 0.0
29/07:00am 9.5 8.7 9.5 100 0.0 NNE 4 6 2 3 1032.0 1032.4 0.0
29/06:30am 9.6 8.4 9.6 100 0.0 NNE 6 7 3 4 1031.9 1032.2 0.0
29/06:00am 9.4 8.5 9.4 100 0.0 N 4 6 2 3 1031.7 1032.0 0.0
29/05:30am 9.1 7.8 9.1 100 0.0 N 6 7 3 4 1031.6 1031.9 0.0
29/05:00am 9.2 8.3 9.2 100 0.0 N 4 6 2 3 1031.7 1032.0 0.0
29/04:30am 10.1 9.0 10.1 100 0.0 ESE 6 6 3 3 1031.8 1032.1 0.0
29/04:00am 9.5 8.7 9.5 100 0.0 ESE 4 6 2 3 1032.0 1032.4 0.0
29/03:30am 10.0 9.3 10.0 100 0.0 ESE 4 6 2 3 1032.2 1032.6 0.0
29/03:00am 10.1 8.8 10.1 100 0.0 ESE 7 15 4 8 1032.2 1032.6 0.0
29/02:30am 10.4 9.4 10.4 100 0.0 ENE 6 9 3 5 1032.3 1032.7 0.0
29/02:00am 10.3 9.1 10.3 100 0.0 E 7 11 4 6 1032.4 1032.8 0.0
29/01:30am 10.5 9.6 10.5 100 0.0 NE 6 9 3 5 1032.4 1032.8 0.0
29/01:00am 10.4 9.2 10.4 100 0.0 NE 7 9 4 5 1032.6 1033.0 0.0
29/12:30am 10.2 9.0 10.2 100 0.0 ENE 7 9 4 5 1033.0 1033.3 0.0
29/12:00am 10.2 9.2 10.2 100 0.0 NNE 6 7 3 4 1033.2 1033.5 0.0
 
Date/Time
CST
Temp
°C
App
Temp
°C
Dew
Point
Rel
Hum
%
Delta-T
°C
Wind Press
QNH
hPa
Press
MSL
hPa
Rain
since 9 am
mm
Dir
 
Spd
km/h
Gust
km/h
Spd
kts
Gust
kts
28/11:30pm 10.3 8.7 10.3 100 0.0 NE 9 11 5 6 1033.3 1033.6 0.0
28/11:00pm 9.9 8.6 9.9 100 0.0 E 7 7 4 4 1033.4 1033.7 0.0
28/10:30pm 10.0 8.7 10.0 100 0.0 ESE 7 7 4 4 1033.5 1033.8 0.0
28/10:00pm 9.9 8.8 9.9 100 0.0 W 6 6 3 3 1033.5 1033.8 0.0
28/09:30pm 9.9 9.2 9.9 100 0.0 W 4 6 2 3 1033.6 1033.9 0.0
28/09:00pm 9.9 8.8 9.9 100 0.0 W 6 6 3 3 1033.6 1033.9 0.0
28/08:30pm 10.1 8.8 10.1 100 0.0 WNW 7 9 4 5 1033.5 1033.8 0.0
28/08:00pm 10.0 8.7 10.0 100 0.0 WNW 7 9 4 5 1033.4 1033.7 0.0
28/07:30pm 10.0 8.9 10.0 100 0.0 WNW 6 7 3 4 1033.4 1033.7 0.0
28/07:00pm 10.0 8.9 10.0 100 0.0 WNW 6 7 3 4 1033.2 1033.5 0.0
28/06:30pm 9.8 9.0 9.8 100 0.0 WNW 4 6 2 3 1033.2 1033.5 0.0
28/06:00pm 10.0 9.3 10.0 100 0.0 WNW 4 4 2 2 1032.9 1033.2 0.0
28/05:30pm 10.2 9.5 10.2 100 0.0 WNW 4 6 2 3 1032.9 1033.2 0.0
28/05:00pm 10.5 9.6 10.5 100 0.0 WNW 6 7 3 4 1032.6 1033.0 0.0
28/04:30pm 11.0 10.2 11.0 100 0.0 NW 6 9 3 5 1032.8 1033.1 0.0
28/04:00pm 11.1 10.3 11.1 100 0.0 NW 6 7 3 4 1032.8 1033.1 0.0
28/03:30pm 11.2 10.3 11.2 100 0.0 NW 7 9 4 5 1032.8 1033.1 0.0
28/03:00pm 11.4 10.5 11.4 100 0.0 NNW 7 9 4 5 1032.8 1033.1 0.0
28/02:30pm 11.3 10.4 11.3 100 0.0 WNW 7 11 4 6 1032.8 1033.1 0.0
28/02:00pm 11.5 10.8 11.5 100 0.0 NW 6 9 3 5 1032.9 1033.2 0.0
28/01:30pm 11.2 9.9 11.2 100 0.0 NW 9 11 5 6 1033.0 1033.3 0.0
28/01:00pm 11.0 10.2 11.0 100 0.0 NNW 6 11 3 6 1033.1 1033.4 0.0
28/12:30pm 11.3 10.6 11.3 100 0.0 WNW 6 9 3 5 1033.5 1033.8 0.0
28/12:00pm 11.7 10.9 11.7 100 0.0 NW 7 13 4 7 1033.8 1034.1 0.0
28/11:30am 12.0 11.5 12.0 100 0.0 NNW 6 9 3 5 1034.3 1034.6 0.0
28/11:00am 12.0 12.2 12.0 100 0.0 NNW 2 7 1 4 1034.6 1035.0 0.0
28/10:30am 11.8 12.4 11.8 100 0.0 CALM 0 0 0 0 1034.7 1035.1 0.0
28/10:00am 11.3 10.6 11.3 100 0.0 NW 6 7 3 4 1034.5 1034.9 0.0
28/09:30am 11.1 11.1 11.1 100 0.0 NNW 2 4 1 2 1034.5 1034.9 0.0
28/09:00am 10.3 10.1 10.3 100 0.0 NNW 2 6 1 3 1034.4 1034.7 0.0
28/08:30am 9.8 9.8 9.8 100 0.0 CALM 0 0 0 0 1034.3 1034.6 0.0
28/08:00am 9.6 9.2 9.6 100 0.0 NNW 2 4 1 2 1034.1 1034.4 0.0
28/07:30am 9.4 8.9 9.4 100 0.0 WNW 2 6 1 3 1033.8 1034.1 0.0
28/07:00am 9.4 9.3 9.4 100 0.0 CALM 0 0 0 0 1033.6 1033.9 0.0
28/06:30am 9.4 8.5 9.4 100 0.0 WNW 4 6 2 3 1033.2 1033.5 0.0
28/06:00am 9.4 8.5 9.4 100 0.0 NW 4 4 2 2 1033.0 1033.3 0.0
28/05:30am 9.4 8.5 9.4 100 0.0 NW 4 6 2 3 1032.6 1033.0 0.0
28/05:00am 9.4 8.5 9.4 100 0.0 NW 4 6 2 3 1032.6 1033.0 0.0
28/04:30am 9.1 7.8 9.1 100 0.0 NW 6 6 3 3 1032.6 1033.0 0.0
28/04:00am 8.8 7.4 8.8 100 0.0 NW 6 6 3 3 1032.6 1033.0 0.0
28/03:30am 8.9 7.5 8.9 100 0.0 NW 6 9 3 5 1032.8 1033.1 0.0
28/03:00am 9.4 8.0 9.4 100 0.0 NNW 7 11 4 6 1032.9 1033.2 0.0
28/02:30am 9.2 7.9 9.2 100 0.0 NW 6 7 3 4 1033.0 1033.3 0.0
28/02:00am 8.8 7.2 8.8 100 0.0 NW 7 9 4 5 1032.9 1033.2 0.0
28/01:30am 9.2 7.7 9.2 100 0.0 NNW 7 9 4 5 1032.8 1033.1 0.0
28/01:00am 9.2 7.7 9.2 100 0.0 NNW 7 7 4 4 1032.6 1033.0 0.0
28/12:30am 9.6 8.8 9.6 100 0.0 NW 4 6 2 3 1032.8 1033.1 0.0
28/12:00am 9.6 8.2 9.6 100 0.0 NW 7 7 4 4 1032.9 1033.2 0.0
 
Date/Time
CST
Temp
°C
App
Temp
°C
Dew
Point
Rel
Hum
%
Delta-T
°C
Wind Press
QNH
hPa
Press
MSL
hPa
Rain
since 9 am
mm
Dir
 
Spd
km/h
Gust
km/h
Spd
kts
Gust
kts
27/11:30pm 9.4 8.2 9.4 100 0.0 NW 6 7 3 4 1033.0 1033.3 0.0
27/11:00pm 9.7 8.3 9.7 100 0.0 NW 7 7 4 4 1033.1 1033.4 0.0
27/10:30pm 9.8 8.7 9.8 100 0.0 NW 6 7 3 4 1033.3 1033.6 0.0
27/10:00pm 9.8 8.7 9.8 100 0.0 NW 6 7 3 4 1033.2 1033.5 0.0
27/09:30pm 9.8 8.7 9.8 100 0.0 NW 6 7 3 4 1033.2 1033.5 0.0
27/09:00pm 9.7 8.5 9.7 100 0.0 NW 6 7 3 4 1033.1 1033.4 0.0
27/08:30pm 9.5 8.3 9.5 100 0.0 NW 6 6 3 3 1033.1 1033.4 0.0
27/08:00pm 9.5 8.3 9.5 100 0.0 NW 6 7 3 4 1033.1 1033.4 0.0
27/07:30pm 9.7 8.5 9.7 100 0.0 NNW 6 7 3 4 1033.1 1033.4 0.0

Other Formats:

Comma delimited format used in spreadsheet applications
http://www.bom.gov.au/fwo/IDS60801/IDS60801.94811.axf

JavaScript Object Notation format (JSON) in row-major order
http://www.bom.gov.au/fwo/IDS60801/IDS60801.94811.json